sensor_id;sensor_type;location;lat;lon;timestamp;pressure;altitude;pressure_sealevel;temperature;humidity
26635;BME280;14490;54.208;37.686;2023-04-07T00:01:26;99732.84;;;7.92;59.39
26635;BME280;14490;54.208;37.686;2023-04-07T00:04:00;99735.66;;;7.90;59.03
26635;BME280;14490;54.208;37.686;2023-04-07T00:06:28;99703.00;;;7.71;59.73
26635;BME280;14490;54.208;37.686;2023-04-07T00:09:10;99738.28;;;7.78;58.50
26635;BME280;14490;54.208;37.686;2023-04-07T00:11:40;99742.66;;;7.79;58.42
26635;BME280;14490;54.208;37.686;2023-04-07T00:14:23;99708.13;;;7.61;58.87
26635;BME280;14490;54.208;37.686;2023-04-07T00:17:05;99741.19;;;7.75;59.36
26635;BME280;14490;54.208;37.686;2023-04-07T00:19:33;99721.72;;;7.58;59.49
26635;BME280;14490;54.208;37.686;2023-04-07T00:22:04;99705.69;;;7.44;58.88
26635;BME280;14490;54.208;37.686;2023-04-07T00:25:00;99735.84;;;7.60;59.10
26635;BME280;14490;54.208;37.686;2023-04-07T00:27:28;99752.69;;;7.62;59.45
26635;BME280;14490;54.208;37.686;2023-04-07T00:29:56;99748.28;;;7.61;59.76
26635;BME280;14490;54.208;37.686;2023-04-07T00:36:02;99605.53;;;6.67;59.53
26635;BME280;14490;54.208;37.686;2023-04-07T00:38:33;99668.97;;;7.05;59.88
26635;BME280;14490;54.208;37.686;2023-04-07T00:41:04;99749.44;;;7.57;60.82
26635;BME280;14490;54.208;37.686;2023-04-07T00:43:37;99686.09;;;7.17;60.74
26635;BME280;14490;54.208;37.686;2023-04-07T00:46:08;99753.94;;;7.57;61.13
26635;BME280;14490;54.208;37.686;2023-04-07T00:48:49;99751.56;;;7.52;61.51
26635;BME280;14490;54.208;37.686;2023-04-07T00:51:19;99621.19;;;6.73;61.57
26635;BME280;14490;54.208;37.686;2023-04-07T00:53:47;99752.03;;;7.45;61.74
26635;BME280;14490;54.208;37.686;2023-04-07T01:03:26;99743.97;;;7.32;62.42
26635;BME280;14490;54.208;37.686;2023-04-07T01:06:00;99647.38;;;6.68;63.02
26635;BME280;14490;54.208;37.686;2023-04-07T01:08:32;99746.06;;;7.27;63.21
26635;BME280;14490;54.208;37.686;2023-04-07T01:11:07;99739.41;;;7.20;63.44
26635;BME280;14490;54.208;37.686;2023-04-07T01:13:43;99753.75;;;7.19;63.47
26635;BME280;14490;54.208;37.686;2023-04-07T01:16:16;99747.03;;;7.12;64.29
26635;BME280;14490;54.208;37.686;2023-04-07T01:18:53;99581.72;;;6.07;64.28
26635;BME280;14490;54.208;37.686;2023-04-07T01:21:26;99735.03;;;7.05;64.99
26635;BME280;14490;54.208;37.686;2023-04-07T01:24:19;99737.31;;;6.97;65.26
26635;BME280;14490;54.208;37.686;2023-04-07T01:27:20;99746.75;;;7.02;65.49
26635;BME280;14490;54.208;37.686;2023-04-07T01:29:51;99750.50;;;7.00;66.01
26635;BME280;14490;54.208;37.686;2023-04-07T01:32:19;99741.16;;;6.93;66.39
26635;BME280;14490;54.208;37.686;2023-04-07T01:34:51;99729.13;;;6.86;66.55
26635;BME280;14490;54.208;37.686;2023-04-07T01:37:19;99759.88;;;6.93;67.27
26635;BME280;14490;54.208;37.686;2023-04-07T01:39:47;99751.06;;;6.91;67.55
26635;BME280;14490;54.208;37.686;2023-04-07T01:42:15;99727.28;;;6.72;68.44
26635;BME280;14490;54.208;37.686;2023-04-07T01:44:45;99706.28;;;6.66;68.57
26635;BME280;14490;54.208;37.686;2023-04-07T01:47:15;99750.53;;;6.86;68.52
26635;BME280;14490;54.208;37.686;2023-04-07T01:49:44;99733.31;;;6.76;69.15
26635;BME280;14490;54.208;37.686;2023-04-07T01:52:13;99740.28;;;6.78;69.44
26635;BME280;14490;54.208;37.686;2023-04-07T01:54:40;99740.03;;;6.69;70.19
26635;BME280;14490;54.208;37.686;2023-04-07T01:57:09;99746.13;;;6.71;70.30
26635;BME280;14490;54.208;37.686;2023-04-07T01:59:36;99752.41;;;6.70;71.14
26635;BME280;14490;54.208;37.686;2023-04-07T02:02:03;99745.38;;;6.69;71.21
26635;BME280;14490;54.208;37.686;2023-04-07T02:04:35;99753.56;;;6.66;71.89
26635;BME280;14490;54.208;37.686;2023-04-07T02:07:09;99753.78;;;6.63;72.60
26635;BME280;14490;54.208;37.686;2023-04-07T02:09:42;99674.44;;;6.05;73.06
26635;BME280;14490;54.208;37.686;2023-04-07T02:12:11;99743.44;;;6.56;73.31
26635;BME280;14490;54.208;37.686;2023-04-07T02:14:41;99748.78;;;6.56;73.79
26635;BME280;14490;54.208;37.686;2023-04-07T02:17:09;99757.47;;;6.60;74.15
26635;BME280;14490;54.208;37.686;2023-04-07T02:19:40;99747.06;;;6.55;74.45
26635;BME280;14490;54.208;37.686;2023-04-07T02:22:09;99762.16;;;6.56;74.73
26635;BME280;14490;54.208;37.686;2023-04-07T02:24:40;99754.91;;;6.58;74.93
26635;BME280;14490;54.208;37.686;2023-04-07T02:27:16;99764.72;;;6.58;75.78
26635;BME280;14490;54.208;37.686;2023-04-07T02:29:45;99725.56;;;6.43;75.67
26635;BME280;14490;54.208;37.686;2023-04-07T02:32:12;99767.22;;;6.61;76.57
26635;BME280;14490;54.208;37.686;2023-04-07T02:34:41;99766.47;;;6.59;77.89
26635;BME280;14490;54.208;37.686;2023-04-07T02:37:09;99761.56;;;6.51;77.79
26635;BME280;14490;54.208;37.686;2023-04-07T02:39:36;99768.44;;;6.55;79.09
26635;BME280;14490;54.208;37.686;2023-04-07T02:42:03;99763.47;;;6.49;78.80
26635;BME280;14490;54.208;37.686;2023-04-07T02:44:31;99768.22;;;6.44;79.63
26635;BME280;14490;54.208;37.686;2023-04-07T02:46:58;99774.34;;;6.46;79.57
26635;BME280;14490;54.208;37.686;2023-04-07T02:53:08;99774.53;;;6.43;80.74
26635;BME280;14490;54.208;37.686;2023-04-07T02:55:35;99761.81;;;6.33;80.63
26635;BME280;14490;54.208;37.686;2023-04-07T02:58:03;99770.44;;;6.38;80.36
26635;BME280;14490;54.208;37.686;2023-04-07T03:00:31;99594.13;;;5.34;81.02
26635;BME280;14490;54.208;37.686;2023-04-07T03:02:59;99784.19;;;6.46;81.41
26635;BME280;14490;54.208;37.686;2023-04-07T03:05:27;99754.28;;;6.25;81.54
26635;BME280;14490;54.208;37.686;2023-04-07T03:07:54;99790.28;;;6.34;82.12
26635;BME280;14490;54.208;37.686;2023-04-07T03:10:23;99780.72;;;6.30;83.16
26635;BME280;14490;54.208;37.686;2023-04-07T03:12:50;99786.34;;;6.25;83.94
26635;BME280;14490;54.208;37.686;2023-04-07T03:15:18;99786.34;;;6.25;84.22
26635;BME280;14490;54.208;37.686;2023-04-07T03:17:45;99783.16;;;6.19;85.18
26635;BME280;14490;54.208;37.686;2023-04-07T03:20:13;99789.44;;;6.18;85.58
26635;BME280;14490;54.208;37.686;2023-04-07T03:22:41;99788.41;;;6.20;85.54
26635;BME280;14490;54.208;37.686;2023-04-07T03:25:09;99800.13;;;6.18;85.87
26635;BME280;14490;54.208;37.686;2023-04-07T03:27:38;99797.56;;;6.16;86.13
26635;BME280;14490;54.208;37.686;2023-04-07T03:30:07;99769.44;;;5.95;86.63
26635;BME280;14490;54.208;37.686;2023-04-07T03:32:35;99803.28;;;6.10;87.07
26635;BME280;14490;54.208;37.686;2023-04-07T03:35:02;99796.75;;;6.00;87.70
26635;BME280;14490;54.208;37.686;2023-04-07T03:37:30;99795.63;;;6.04;88.67
26635;BME280;14490;54.208;37.686;2023-04-07T03:39:57;99803.63;;;6.04;89.04
26635;BME280;14490;54.208;37.686;2023-04-07T03:42:25;99801.72;;;6.06;89.11
26635;BME280;14490;54.208;37.686;2023-04-07T03:44:53;99804.72;;;6.16;88.61
26635;BME280;14490;54.208;37.686;2023-04-07T03:47:21;99797.75;;;6.13;88.26
26635;BME280;14490;54.208;37.686;2023-04-07T03:49:48;99796.53;;;6.19;88.05
26635;BME280;14490;54.208;37.686;2023-04-07T03:52:15;99814.59;;;6.29;87.62
26635;BME280;14490;54.208;37.686;2023-04-07T03:54:43;99805.25;;;6.36;88.14
26635;BME280;14490;54.208;37.686;2023-04-07T03:57:10;99805.25;;;6.36;87.41
26635;BME280;14490;54.208;37.686;2023-04-07T03:59:38;99811.38;;;6.38;87.33
26635;BME280;14490;54.208;37.686;2023-04-07T04:02:07;99809.47;;;6.40;87.29
26635;BME280;14490;54.208;37.686;2023-04-07T04:04:34;99807.56;;;6.42;87.33
26635;BME280;14490;54.208;37.686;2023-04-07T04:07:02;99810.25;;;6.42;87.70
26635;BME280;14490;54.208;37.686;2023-04-07T04:09:29;99809.78;;;6.50;87.32
26635;BME280;14490;54.208;37.686;2023-04-07T04:11:56;99786.28;;;6.41;87.10
26635;BME280;14490;54.208;37.686;2023-04-07T04:14:24;99799.59;;;6.56;86.53
26635;BME280;14490;54.208;37.686;2023-04-07T04:16:52;99802.72;;;6.63;87.86
26635;BME280;14490;54.208;37.686;2023-04-07T04:19:21;99822.00;;;6.84;86.24
26635;BME280;14490;54.208;37.686;2023-04-07T04:21:48;99816.91;;;6.93;85.41
26635;BME280;14490;54.208;37.686;2023-04-07T04:24:16;99816.44;;;7.01;85.04
26635;BME280;14490;54.208;37.686;2023-04-07T04:26:43;99799.63;;;6.99;85.29
26635;BME280;14490;54.208;37.686;2023-04-07T04:29:10;99643.16;;;6.07;84.02
26635;BME280;14490;54.208;37.686;2023-04-07T04:31:38;99821.78;;;7.15;83.52
26635;BME280;14490;54.208;37.686;2023-04-07T04:34:08;99822.56;;;7.17;84.10
26635;BME280;14490;54.208;37.686;2023-04-07T04:36:37;99816.25;;;7.18;82.84
26635;BME280;14490;54.208;37.686;2023-04-07T04:39:05;99824.66;;;7.26;82.65
26635;BME280;14490;54.208;37.686;2023-04-07T04:41:33;99831.16;;;7.36;82.72
26635;BME280;14490;54.208;37.686;2023-04-07T04:44:00;99826.19;;;7.44;82.80
26635;BME280;14490;54.208;37.686;2023-04-07T04:46:27;99800.00;;;7.35;81.79
26635;BME280;14490;54.208;37.686;2023-04-07T04:48:55;99832.38;;;7.45;80.13
26635;BME280;14490;54.208;37.686;2023-04-07T04:51:22;99816.50;;;7.42;81.00
26635;BME280;14490;54.208;37.686;2023-04-07T04:53:52;99829.63;;;7.46;80.87
26635;BME280;14490;54.208;37.686;2023-04-07T04:56:19;99833.03;;;7.62;80.75
26635;BME280;14490;54.208;37.686;2023-04-07T04:58:47;99834.81;;;7.76;80.07
26635;BME280;14490;54.208;37.686;2023-04-07T05:01:14;99838.50;;;7.88;78.71
26635;BME280;14490;54.208;37.686;2023-04-07T05:03:41;99847.00;;;7.94;79.13
26635;BME280;14490;54.208;37.686;2023-04-07T05:06:11;99841.78;;;7.93;77.68
26635;BME280;14490;54.208;37.686;2023-04-07T05:08:39;99850.97;;;7.89;76.50
26635;BME280;14490;54.208;37.686;2023-04-07T05:11:08;99854.03;;;7.83;75.66
26635;BME280;14490;54.208;37.686;2023-04-07T05:13:35;99855.38;;;7.90;76.15
26635;BME280;14490;54.208;37.686;2023-04-07T05:16:03;99854.66;;;8.00;76.84
26635;BME280;14490;54.208;37.686;2023-04-07T05:18:31;99859.88;;;8.16;75.97
26635;BME280;14490;54.208;37.686;2023-04-07T05:20:58;99862.69;;;8.27;75.50
26635;BME280;14490;54.208;37.686;2023-04-07T05:23:26;99853.88;;;8.39;74.92
26635;BME280;14490;54.208;37.686;2023-04-07T05:25:54;99867.31;;;8.52;74.10
26635;BME280;14490;54.208;37.686;2023-04-07T05:28:22;99854.47;;;8.57;72.25
26635;BME280;14490;54.208;37.686;2023-04-07T05:30:50;99831.50;;;8.53;71.81
26635;BME280;14490;54.208;37.686;2023-04-07T05:33:17;99855.13;;;8.73;72.00
26635;BME280;14490;54.208;37.686;2023-04-07T05:35:45;99854.63;;;8.81;71.08
26635;BME280;14490;54.208;37.686;2023-04-07T05:38:12;99859.00;;;8.82;70.95
26635;BME280;14490;54.208;37.686;2023-04-07T05:40:41;99857.94;;;8.71;70.59
26635;BME280;14490;54.208;37.686;2023-04-07T05:43:08;99856.16;;;8.58;72.62
26635;BME280;14490;54.208;37.686;2023-04-07T05:45:37;99865.81;;;8.60;72.95
26635;BME280;14490;54.208;37.686;2023-04-07T05:48:05;99860.88;;;8.54;71.88
26635;BME280;14490;54.208;37.686;2023-04-07T05:50:32;99861.16;;;8.76;74.19
26635;BME280;14490;54.208;37.686;2023-04-07T05:53:00;99854.63;;;8.93;74.33
26635;BME280;14490;54.208;37.686;2023-04-07T05:55:27;99864.50;;;8.93;72.13
26635;BME280;14490;54.208;37.686;2023-04-07T05:57:55;99867.81;;;8.84;71.08
26635;BME280;14490;54.208;37.686;2023-04-07T06:00:23;99854.25;;;8.72;72.06
26635;BME280;14490;54.208;37.686;2023-04-07T06:02:53;99861.25;;;8.88;73.17
26635;BME280;14490;54.208;37.686;2023-04-07T06:05:20;99869.88;;;9.05;73.43
26635;BME280;14490;54.208;37.686;2023-04-07T06:07:47;99872.78;;;9.15;72.89
26635;BME280;14490;54.208;37.686;2023-04-07T06:10:15;99867.31;;;9.29;72.41
26635;BME280;14490;54.208;37.686;2023-04-07T06:12:42;99852.78;;;9.31;70.65
26635;BME280;14490;54.208;37.686;2023-04-07T06:15:10;99874.06;;;9.60;72.71
26635;BME280;14490;54.208;37.686;2023-04-07T06:17:37;99878.53;;;9.72;71.88
26635;BME280;14490;54.208;37.686;2023-04-07T06:20:07;99880.91;;;9.64;70.32
26635;BME280;14490;54.208;37.686;2023-04-07T06:22:35;99877.09;;;9.92;71.46
26635;BME280;14490;54.208;37.686;2023-04-07T06:25:03;99874.94;;;9.97;69.08
26635;BME280;14490;54.208;37.686;2023-04-07T06:27:31;99877.19;;;10.03;68.78
26635;BME280;14490;54.208;37.686;2023-04-07T06:29:59;99884.25;;;10.04;68.37
26635;BME280;14490;54.208;37.686;2023-04-07T06:32:26;99878.00;;;10.16;70.38
26635;BME280;14490;54.208;37.686;2023-04-07T06:34:54;99883.72;;;10.11;68.60
26635;BME280;14490;54.208;37.686;2023-04-07T06:37:23;99870.69;;;10.18;69.39
26635;BME280;14490;54.208;37.686;2023-04-07T06:39:50;99877.09;;;10.28;70.50
26635;BME280;14490;54.208;37.686;2023-04-07T06:42:18;99882.00;;;10.34;69.82
26635;BME280;14490;54.208;37.686;2023-04-07T06:44:45;99864.63;;;10.27;68.87
26635;BME280;14490;54.208;37.686;2023-04-07T06:47:12;99868.06;;;10.29;67.83
26635;BME280;14490;54.208;37.686;2023-04-07T06:49:40;99880.78;;;10.27;67.16
26635;BME280;14490;54.208;37.686;2023-04-07T06:52:07;99874.53;;;10.26;68.96
26635;BME280;14490;54.208;37.686;2023-04-07T06:54:36;99881.31;;;10.43;68.13
26635;BME280;14490;54.208;37.686;2023-04-07T06:57:04;99874.28;;;10.53;68.52
26635;BME280;14490;54.208;37.686;2023-04-07T06:59:36;99883.66;;;10.71;68.87
26635;BME280;14490;54.208;37.686;2023-04-07T07:02:03;99883.34;;;10.87;68.74
26635;BME280;14490;54.208;37.686;2023-04-07T07:04:31;99869.53;;;10.91;67.96
26635;BME280;14490;54.208;37.686;2023-04-07T07:06:59;99876.66;;;11.04;67.46
26635;BME280;14490;54.208;37.686;2023-04-07T07:09:30;99876.41;;;11.07;65.98
26635;BME280;14490;54.208;37.686;2023-04-07T07:11:58;99882.81;;;11.17;65.70
26635;BME280;14490;54.208;37.686;2023-04-07T07:14:27;99866.66;;;11.17;65.83
26635;BME280;14490;54.208;37.686;2023-04-07T07:16:54;99887.00;;;11.21;64.34
26635;BME280;14490;54.208;37.686;2023-04-07T07:19:22;99881.84;;;11.18;64.64
26635;BME280;14490;54.208;37.686;2023-04-07T07:21:49;99880.41;;;11.36;67.85
26635;BME280;14490;54.208;37.686;2023-04-07T07:24:16;99872.56;;;11.55;69.11
26635;BME280;14490;54.208;37.686;2023-04-07T07:26:44;99876.66;;;11.72;68.68
26635;BME280;14490;54.208;37.686;2023-04-07T07:29:12;99869.91;;;11.77;68.27
26635;BME280;14490;54.208;37.686;2023-04-07T07:31:40;99879.06;;;11.86;66.70
26635;BME280;14490;54.208;37.686;2023-04-07T07:34:07;99874.69;;;11.85;65.18
26635;BME280;14490;54.208;37.686;2023-04-07T07:36:35;99884.25;;;11.78;64.50
26635;BME280;14490;54.208;37.686;2023-04-07T07:39:02;99868.31;;;11.75;65.68
26635;BME280;14490;54.208;37.686;2023-04-07T07:41:30;99874.44;;;11.88;64.20
26635;BME280;14490;54.208;37.686;2023-04-07T07:43:58;99884.84;;;12.03;64.11
26635;BME280;14490;54.208;37.686;2023-04-07T07:46:27;99880.66;;;11.99;59.71
26635;BME280;14490;54.208;37.686;2023-04-07T07:48:54;99879.09;;;11.97;57.89
26635;BME280;14490;54.208;37.686;2023-04-07T07:51:21;99890.75;;;11.97;56.22
26635;BME280;14490;54.208;37.686;2023-04-07T07:53:50;99853.72;;;11.88;56.10
26635;BME280;14490;54.208;37.686;2023-04-07T07:56:17;99885.94;;;12.12;55.76
26635;BME280;14490;54.208;37.686;2023-04-07T07:58:45;99877.84;;;12.01;55.00
26635;BME280;14490;54.208;37.686;2023-04-07T08:01:12;99889.75;;;12.10;55.99
26635;BME280;14490;54.208;37.686;2023-04-07T08:03:40;99892.91;;;12.15;55.97
26635;BME280;14490;54.208;37.686;2023-04-07T08:06:08;99889.97;;;12.18;55.55
26635;BME280;14490;54.208;37.686;2023-04-07T08:08:36;99879.63;;;12.23;54.98
26635;BME280;14490;54.208;37.686;2023-04-07T08:11:03;99887.72;;;12.34;55.79
26635;BME280;14490;54.208;37.686;2023-04-07T08:13:31;99871.16;;;11.73;52.41
26635;BME280;14490;54.208;37.686;2023-04-07T08:15:58;99881.41;;;11.57;52.27
26635;BME280;14490;54.208;37.686;2023-04-07T08:18:25;99884.09;;;11.68;53.00
26635;BME280;14490;54.208;37.686;2023-04-07T08:20:54;99886.84;;;11.79;53.44
26635;BME280;14490;54.208;37.686;2023-04-07T08:23:22;99865.13;;;11.70;52.89
26635;BME280;14490;54.208;37.686;2023-04-07T08:25:49;99879.72;;;11.78;53.33
26635;BME280;14490;54.208;37.686;2023-04-07T08:28:16;99877.97;;;11.66;52.90
26635;BME280;14490;54.208;37.686;2023-04-07T08:30:45;99879.69;;;11.45;51.92
26635;BME280;14490;54.208;37.686;2023-04-07T08:33:25;99848.78;;;11.27;50.87
26635;BME280;14490;54.208;37.686;2023-04-07T08:35:54;99860.06;;;11.32;48.48
26635;BME280;14490;54.208;37.686;2023-04-07T08:38:21;99876.13;;;11.44;48.01
26635;BME280;14490;54.208;37.686;2023-04-07T08:40:52;99887.38;;;11.49;48.77
26635;BME280;14490;54.208;37.686;2023-04-07T08:43:21;99878.69;;;11.68;48.71
26635;BME280;14490;54.208;37.686;2023-04-07T08:45:49;99880.31;;;11.82;48.54
26635;BME280;14490;54.208;37.686;2023-04-07T08:48:17;99863.25;;;11.59;47.63
26635;BME280;14490;54.208;37.686;2023-04-07T08:50:51;99884.13;;;11.79;47.12
26635;BME280;14490;54.208;37.686;2023-04-07T08:53:23;99895.88;;;11.89;47.09
26635;BME280;14490;54.208;37.686;2023-04-07T08:55:55;99888.63;;;12.12;47.76
26635;BME280;14490;54.208;37.686;2023-04-07T08:58:23;99890.41;;;12.34;47.54
26635;BME280;14490;54.208;37.686;2023-04-07T09:00:51;99885.69;;;12.58;49.60
26635;BME280;14490;54.208;37.686;2023-04-07T09:03:20;99878.50;;;12.68;50.10
26635;BME280;14490;54.208;37.686;2023-04-07T09:05:48;99888.06;;;12.72;49.92
26635;BME280;14490;54.208;37.686;2023-04-07T09:08:18;99884.38;;;12.73;50.21
26635;BME280;14490;54.208;37.686;2023-04-07T09:10:45;99891.81;;;12.81;50.51
26635;BME280;14490;54.208;37.686;2023-04-07T09:13:13;99893.91;;;12.88;50.21
26635;BME280;14490;54.208;37.686;2023-04-07T09:15:40;99887.44;;;13.00;51.05
26635;BME280;14490;54.208;37.686;2023-04-07T09:18:07;99886.94;;;13.06;50.47
26635;BME280;14490;54.208;37.686;2023-04-07T09:20:55;99893.97;;;12.98;49.47
26635;BME280;14490;54.208;37.686;2023-04-07T09:23:29;99896.09;;;12.83;48.11
26635;BME280;14490;54.208;37.686;2023-04-07T09:25:58;99896.38;;;12.80;47.48
26635;BME280;14490;54.208;37.686;2023-04-07T09:28:38;99886.78;;;12.87;49.22
26635;BME280;14490;54.208;37.686;2023-04-07T09:31:07;99892.16;;;13.19;50.74
26635;BME280;14490;54.208;37.686;2023-04-07T09:33:35;99894.53;;;13.12;48.08
26635;BME280;14490;54.208;37.686;2023-04-07T09:36:02;99892.75;;;13.23;48.80
26635;BME280;14490;54.208;37.686;2023-04-07T09:38:36;99877.34;;;13.02;46.96
26635;BME280;14490;54.208;37.686;2023-04-07T09:41:05;99892.00;;;12.68;45.41
26635;BME280;14490;54.208;37.686;2023-04-07T09:43:35;99881.88;;;12.81;45.80
26635;BME280;14490;54.208;37.686;2023-04-07T09:46:12;99894.41;;;12.82;45.35
26635;BME280;14490;54.208;37.686;2023-04-07T09:48:41;99879.88;;;12.94;46.73
26635;BME280;14490;54.208;37.686;2023-04-07T09:51:11;99888.88;;;13.16;47.10
26635;BME280;14490;54.208;37.686;2023-04-07T09:53:45;99886.88;;;13.18;45.85
26635;BME280;14490;54.208;37.686;2023-04-07T09:56:15;99844.84;;;12.72;45.18
26635;BME280;14490;54.208;37.686;2023-04-07T09:58:45;99895.59;;;12.89;44.30
26635;BME280;14490;54.208;37.686;2023-04-07T10:01:14;99879.03;;;12.83;43.89
26635;BME280;14490;54.208;37.686;2023-04-07T10:03:43;99889.03;;;12.71;43.62
26635;BME280;14490;54.208;37.686;2023-04-07T10:06:11;99892.25;;;12.65;42.99
26635;BME280;14490;54.208;37.686;2023-04-07T10:08:41;99854.16;;;12.47;43.61
26635;BME280;14490;54.208;37.686;2023-04-07T10:11:10;99885.63;;;12.69;43.92
26635;BME280;14490;54.208;37.686;2023-04-07T10:13:40;99839.78;;;12.58;44.47
26635;BME280;14490;54.208;37.686;2023-04-07T10:16:07;99879.00;;;12.94;43.83
26635;BME280;14490;54.208;37.686;2023-04-07T10:18:35;99889.13;;;13.12;44.63
26635;BME280;14490;54.208;37.686;2023-04-07T10:21:04;99888.06;;;13.25;45.18
26635;BME280;14490;54.208;37.686;2023-04-07T10:23:46;99877.44;;;13.33;44.73
26635;BME280;14490;54.208;37.686;2023-04-07T10:26:19;99875.94;;;13.40;45.33
26635;BME280;14490;54.208;37.686;2023-04-07T10:28:52;99848.47;;;13.44;45.65
26635;BME280;14490;54.208;37.686;2023-04-07T10:31:25;99869.22;;;13.64;45.45
26635;BME280;14490;54.208;37.686;2023-04-07T10:33:53;99857.91;;;13.50;44.96
26635;BME280;14490;54.208;37.686;2023-04-07T10:36:21;99880.72;;;13.57;44.68
26635;BME280;14490;54.208;37.686;2023-04-07T10:39:19;99885.13;;;13.58;44.51
26635;BME280;14490;54.208;37.686;2023-04-07T10:41:51;99878.75;;;13.68;44.97
26635;BME280;14490;54.208;37.686;2023-04-07T10:44:45;99873.94;;;13.72;44.87
26635;BME280;14490;54.208;37.686;2023-04-07T10:47:17;99886.03;;;13.17;42.74
26635;BME280;14490;54.208;37.686;2023-04-07T10:50:15;99885.34;;;13.04;43.34
26635;BME280;14490;54.208;37.686;2023-04-07T10:52:44;99865.06;;;13.09;44.45
26635;BME280;14490;54.208;37.686;2023-04-07T10:55:32;99879.44;;;13.31;44.94
26635;BME280;14490;54.208;37.686;2023-04-07T10:58:17;99870.59;;;13.29;44.61
26635;BME280;14490;54.208;37.686;2023-04-07T11:01:19;99880.81;;;13.46;44.70
26635;BME280;14490;54.208;37.686;2023-04-07T11:03:57;99886.66;;;13.51;44.09
26635;BME280;14490;54.208;37.686;2023-04-07T11:06:26;99893.41;;;13.36;43.43
26635;BME280;14490;54.208;37.686;2023-04-07T11:08:53;99897.94;;;13.35;43.47
26635;BME280;14490;54.208;37.686;2023-04-07T11:11:39;99881.41;;;13.29;42.83
26635;BME280;14490;54.208;37.686;2023-04-07T11:14:08;99897.28;;;13.43;43.55
26635;BME280;14490;54.208;37.686;2023-04-07T11:16:40;99887.19;;;13.45;43.41
26635;BME280;14490;54.208;37.686;2023-04-07T11:19:10;99896.94;;;13.57;43.52
26635;BME280;14490;54.208;37.686;2023-04-07T11:21:38;99880.03;;;13.34;42.24
26635;BME280;14490;54.208;37.686;2023-04-07T11:24:05;99903.13;;;13.06;40.96
26635;BME280;14490;54.208;37.686;2023-04-07T11:26:37;99899.81;;;12.82;40.49
26635;BME280;14490;54.208;37.686;2023-04-07T11:29:07;99898.53;;;12.97;42.28
26635;BME280;14490;54.208;37.686;2023-04-07T11:31:37;99891.31;;;13.07;42.62
26635;BME280;14490;54.208;37.686;2023-04-07T11:34:05;99863.84;;;13.02;41.95
26635;BME280;14490;54.208;37.686;2023-04-07T11:36:37;99866.22;;;12.75;40.85
26635;BME280;14490;54.208;37.686;2023-04-07T11:39:05;99893.22;;;12.96;41.28
26635;BME280;14490;54.208;37.686;2023-04-07T11:41:45;99894.72;;;12.89;41.01
26635;BME280;14490;54.208;37.686;2023-04-07T11:44:15;99882.84;;;12.91;41.00
26635;BME280;14490;54.208;37.686;2023-04-07T11:46:51;99875.53;;;13.03;41.41
26635;BME280;14490;54.208;37.686;2023-04-07T11:49:20;99884.19;;;13.18;41.62
26635;BME280;14490;54.208;37.686;2023-04-07T11:51:55;99888.84;;;13.36;42.07
26635;BME280;14490;54.208;37.686;2023-04-07T11:54:24;99878.97;;;13.46;41.86
26635;BME280;14490;54.208;37.686;2023-04-07T11:56:51;99885.84;;;13.60;42.02
26635;BME280;14490;54.208;37.686;2023-04-07T11:59:23;99823.91;;;13.27;41.74
26635;BME280;14490;54.208;37.686;2023-04-07T12:01:51;99877.63;;;13.71;40.95
26635;BME280;14490;54.208;37.686;2023-04-07T12:04:19;99893.03;;;13.50;40.50
26635;BME280;14490;54.208;37.686;2023-04-07T12:06:47;99856.09;;;13.30;40.56
26635;BME280;14490;54.208;37.686;2023-04-07T12:09:28;99859.88;;;13.48;41.00
26635;BME280;14490;54.208;37.686;2023-04-07T12:12:01;99894.31;;;13.46;39.65
26635;BME280;14490;54.208;37.686;2023-04-07T12:14:31;99886.75;;;13.40;39.76
26635;BME280;14490;54.208;37.686;2023-04-07T12:16:59;99891.28;;;13.39;40.34
26635;BME280;14490;54.208;37.686;2023-04-07T12:19:29;99888.13;;;13.34;40.05
26635;BME280;14490;54.208;37.686;2023-04-07T12:22:00;99893.56;;;13.44;40.32
26635;BME280;14490;54.208;37.686;2023-04-07T12:24:28;99890.44;;;13.39;40.36
26635;BME280;14490;54.208;37.686;2023-04-07T12:26:56;99892.69;;;13.34;40.18
26635;BME280;14490;54.208;37.686;2023-04-07T12:29:24;99895.78;;;13.08;39.46
26635;BME280;14490;54.208;37.686;2023-04-07T12:32:05;99890.25;;;12.99;39.21
26635;BME280;14490;54.208;37.686;2023-04-07T12:34:32;99891.56;;;13.16;41.06
26635;BME280;14490;54.208;37.686;2023-04-07T12:37:02;99895.25;;;13.14;40.80
26635;BME280;14490;54.208;37.686;2023-04-07T12:39:30;99895.53;;;13.11;40.48
26635;BME280;14490;54.208;37.686;2023-04-07T12:41:58;99894.94;;;12.76;40.24
26635;BME280;14490;54.208;37.686;2023-04-07T12:44:25;99892.88;;;12.69;40.32
26635;BME280;14490;54.208;37.686;2023-04-07T12:46:52;99896.34;;;12.91;40.91
26635;BME280;14490;54.208;37.686;2023-04-07T12:49:21;99897.72;;;13.06;41.54
26635;BME280;14490;54.208;37.686;2023-04-07T12:51:49;99879.31;;;13.11;41.44
26635;BME280;14490;54.208;37.686;2023-04-07T12:54:20;99885.91;;;13.19;41.23
26635;BME280;14490;54.208;37.686;2023-04-07T12:56:47;99890.78;;;13.25;41.35
26635;BME280;14490;54.208;37.686;2023-04-07T12:59:15;99886.75;;;13.40;42.11
26635;BME280;14490;54.208;37.686;2023-04-07T13:01:42;99892.31;;;13.48;42.26
26635;BME280;14490;54.208;37.686;2023-04-07T13:04:09;99901.41;;;13.47;42.05
26635;BME280;14490;54.208;37.686;2023-04-07T13:06:38;99883.06;;;13.20;41.88
26635;BME280;14490;54.208;37.686;2023-04-07T13:09:05;99898.47;;;13.29;41.85
26635;BME280;14490;54.208;37.686;2023-04-07T13:11:33;99888.97;;;13.35;41.98
26635;BME280;14490;54.208;37.686;2023-04-07T13:14:00;99887.34;;;13.23;41.54
26635;BME280;14490;54.208;37.686;2023-04-07T13:16:28;99898.81;;;13.36;41.36
26635;BME280;14490;54.208;37.686;2023-04-07T13:18:56;99893.84;;;13.41;41.25
26635;BME280;14490;54.208;37.686;2023-04-07T13:21:23;99884.84;;;13.31;41.63
26635;BME280;14490;54.208;37.686;2023-04-07T13:23:52;99905.53;;;13.21;41.30